Bannock, OH (43972)

2:04 AM EST on February 08, 2016 (GMT -0500)
Steubenville Pike | | Change Station
CLOSE
Current Station
Personal Weather Station
Location: Cadiz, OH
Elevation: 1237 ft
Nearby Weather Stations

Elev 1237 ft 40.28 °N, 80.99 °W | Updated 5 seconds ago

Clear
Clear
36.5 °F
Feels Like 34 °F
N
3.6
Wind Variable Wind from SSE
Gusts 4.9 mph

Today
High -- | Low -- °F
--% Chance of Precip.
Yesterday
High -- | Low -- °F
Precip. -- in
Pressure 29.78 in
Visibility 10.0 miles
Clouds Clear
Windchill 34 °F
Dew Point 20 °F
Humidity 52%
Rainfall 0.00 in
Snow Depth Not available.
7:25 AM 5:50 PM
Waning Crescent, 0% visible
METAR KHLG 080653Z AUTO 15006KT 10SM CLR 03/M06 A2975 RMK AO2 SLP083 T00331056
Pressure 29.78 in
Visibility 10.0 miles
Clouds Clear
Windchill 34 °F
Dew Point 20 °F
Humidity 52%
Rainfall 0.00 in
Snow Depth Not available.
7:25 AM 5:50 PM
Waning Crescent, 0% visible
METAR KHLG 080653Z AUTO 15006KT 10SM CLR 03/M06 A2975 RMK AO2 SLP083 T00331056

10-Day Weather Forecast

Almanac

Astronomy

Feb. 08, 2016 Rise Set
Actual Time
Civil Twilight
Nautical Twilight
Astronomical Twilight
Moon
Length of Visible Light
Length of Day
Tomorrow will be .
, % of the Moon is Illuminated

Today's Extremes

State Highs State Lows

Community

WunderPhotos

Upload Photos

1,891,394 photos uploaded!

WunderBlog® & News

Nearby

Air Quality

  Air Quality AQ Index Pollutant
Not available.

Snow Depth

Station Depth Elevation

Earthquake Activity

City Distance Mag. Time & Date
Minimum magnitude displayed is 2.5.

Coastal Water Temperatures

Place Temperature

Stations

Nearby Weather Stations

Station Location Temp. Windchill Dew Point Humidity Wind Precip. Elev Updated Type
                   

Watches & Warnings

There are currently no watches in effect.